createdAt,value
2022-11-09T00:02:10.341Z,96537.00
2022-11-09T00:07:12.169Z,96552.00
2022-11-09T00:12:27.674Z,96544.00
2022-11-09T00:17:29.138Z,96550.00
2022-11-09T00:22:47.622Z,96555.00
2022-11-09T00:27:49.337Z,96550.00
2022-11-09T00:32:56.525Z,96541.00
2022-11-09T00:37:57.447Z,96557.00
2022-11-09T00:43:03.400Z,96553.00
2022-11-09T00:48:08.203Z,96556.00
2022-11-09T00:53:34.592Z,96559.00
2022-11-09T00:58:41.461Z,96565.00
2022-11-09T01:03:44.777Z,96561.00
2022-11-09T01:08:46.862Z,96563.00
2022-11-09T01:14:00.426Z,96553.00
2022-11-09T01:19:03.150Z,96554.00
2022-11-09T01:24:08.892Z,96558.00
2022-11-09T01:29:12.876Z,96564.00
2022-11-09T01:34:17.134Z,96561.00
2022-11-09T01:39:19.607Z,96562.00
2022-11-09T01:44:35.147Z,96568.00
2022-11-09T01:49:59.415Z,96569.00
2022-11-09T01:55:17.711Z,96552.00
2022-11-09T02:00:19.141Z,96558.00
2022-11-09T02:05:45.843Z,96543.00
2022-11-09T02:11:11.932Z,96534.00
2022-11-09T02:16:22.460Z,96531.00
2022-11-09T02:21:27.654Z,96524.00
2022-11-09T02:26:48.577Z,96525.00
2022-11-09T02:31:54.921Z,96508.00
2022-11-09T02:37:00.210Z,96492.00
2022-11-09T02:42:10.759Z,96474.00
2022-11-09T02:47:15.037Z,96505.00
2022-11-09T02:52:17.609Z,96500.00
2022-11-09T02:57:22.520Z,96500.00
2022-11-09T03:02:24.026Z,96506.00
2022-11-09T03:07:26.016Z,96514.00
2022-11-09T03:12:30.073Z,96511.00
2022-11-09T03:17:41.616Z,96512.00
2022-11-09T03:22:56.733Z,96507.00
2022-11-09T03:28:04.402Z,96518.00
2022-11-09T03:33:09.289Z,96530.00
2022-11-09T03:38:23.285Z,96541.00
2022-11-09T03:43:24.776Z,96553.00
2022-11-09T03:48:33.419Z,96563.00
2022-11-09T03:53:34.386Z,96562.00
2022-11-09T03:58:36.937Z,96573.00
2022-11-09T04:03:37.953Z,96571.00
2022-11-09T04:08:51.108Z,96575.00
2022-11-09T04:13:53.268Z,96557.00
2022-11-09T04:19:00.579Z,96562.00
2022-11-09T04:24:01.534Z,96559.00
2022-11-09T04:29:12.088Z,96542.00
2022-11-09T04:34:12.916Z,96528.00
2022-11-09T04:39:14.093Z,96522.00
2022-11-09T04:44:14.860Z,96530.00
2022-11-09T04:49:34.104Z,96553.00
2022-11-09T04:54:36.109Z,96544.00
2022-11-09T04:59:40.158Z,96529.00
2022-11-09T05:04:44.680Z,96525.00
2022-11-09T05:09:47.794Z,96513.00
2022-11-09T05:14:48.501Z,96496.00
2022-11-09T05:19:52.543Z,96514.00
2022-11-09T05:24:57.212Z,96522.00
2022-11-09T05:29:57.935Z,96527.00
2022-11-09T05:35:01.871Z,96534.00
2022-11-09T05:40:03.368Z,96526.00
2022-11-09T05:45:35.498Z,96515.00
2022-11-09T05:50:43.341Z,96518.00
2022-11-09T05:56:23.590Z,96531.00
2022-11-09T06:01:24.467Z,96539.00
2022-11-09T06:06:34.214Z,96532.00
2022-11-09T06:11:38.382Z,96532.00
2022-11-09T06:16:46.052Z,96546.00
2022-11-09T06:21:46.775Z,96552.00
2022-11-09T06:26:47.825Z,96545.00
2022-11-09T06:31:50.576Z,96549.00
2022-11-09T06:36:57.706Z,96550.00
2022-11-09T06:42:04.004Z,96552.00
2022-11-09T06:47:04.912Z,96562.00
2022-11-09T06:52:05.732Z,96570.00
2022-11-09T06:57:06.717Z,96578.00
2022-11-09T07:02:14.179Z,96587.00
2022-11-09T07:07:22.327Z,96587.00
2022-11-09T07:12:26.050Z,96597.00
2022-11-09T07:17:30.807Z,96596.00
2022-11-09T07:22:41.299Z,96602.00
2022-11-09T07:27:46.341Z,96603.00
2022-11-09T07:38:21.555Z,96616.00
2022-11-09T07:43:22.604Z,96628.00
2022-11-09T07:48:25.543Z,96630.00
2022-11-09T07:53:35.382Z,96632.00
2022-11-09T07:58:36.251Z,96632.00
2022-11-09T08:03:37.520Z,96649.00
2022-11-09T08:08:38.511Z,96649.00
2022-11-09T08:13:50.551Z,96659.00
2022-11-09T08:18:51.565Z,96658.00
2022-11-09T08:23:56.952Z,96644.00
2022-11-09T08:28:57.937Z,96648.00
2022-11-09T08:33:58.656Z,96654.00
2022-11-09T08:39:02.465Z,96660.00
2022-11-09T08:44:03.291Z,96647.00
2022-11-09T08:49:04.070Z,96650.00
2022-11-09T08:54:16.745Z,96655.00
2022-11-09T08:59:18.145Z,96654.00
2022-11-09T09:04:32.596Z,96659.00
2022-11-09T09:09:34.092Z,96661.00
2022-11-09T09:14:37.961Z,96657.00
2022-11-09T09:19:38.773Z,96661.00
2022-11-09T09:24:52.454Z,96674.00
2022-11-09T09:30:03.347Z,96668.00
2022-11-09T09:35:08.019Z,96678.00
2022-11-09T09:40:24.537Z,96683.00
2022-11-09T09:45:29.031Z,96688.00
2022-11-09T09:50:44.888Z,96690.00
2022-11-09T09:55:56.648Z,96689.00
2022-11-09T10:01:14.674Z,96701.00
2022-11-09T10:06:48.370Z,96703.00
2022-11-09T10:12:39.388Z,96704.00
2022-11-09T10:22:31.192Z,96713.00
2022-11-09T10:27:39.805Z,96716.00
2022-11-09T10:32:53.196Z,96710.00
2022-11-09T10:37:59.427Z,96717.00
2022-11-09T10:43:08.093Z,96723.00
2022-11-09T10:48:54.298Z,96723.00
2022-11-09T10:54:30.456Z,96727.00
2022-11-09T11:00:02.751Z,96729.00
2022-11-09T11:05:29.130Z,96735.00
2022-11-09T11:10:49.200Z,96732.00
2022-11-09T11:16:43.091Z,96717.00
2022-11-09T11:22:22.588Z,96715.00
2022-11-09T11:27:57.840Z,96716.00
2022-11-09T11:33:21.952Z,96717.00
2022-11-09T11:40:42.832Z,96715.00
2022-11-09T11:49:18.825Z,96714.00
2022-11-09T11:58:09.696Z,96717.00
2022-11-09T12:03:41.746Z,96723.00
2022-11-09T12:09:43.659Z,96717.00
2022-11-09T12:16:54.757Z,96719.00
2022-11-09T12:22:38.960Z,96721.00
2022-11-09T12:28:56.448Z,96714.00
2022-11-09T12:34:29.028Z,96715.00
2022-11-09T12:40:00.762Z,96717.00
2022-11-09T12:45:54.016Z,96722.00
2022-11-09T12:51:25.813Z,96718.00
2022-11-09T12:58:00.909Z,96718.00
2022-11-09T13:03:23.914Z,96720.00
2022-11-09T13:09:43.881Z,96718.00
2022-11-09T13:15:27.310Z,96725.00
2022-11-09T13:24:08.089Z,96720.00
2022-11-09T13:30:06.611Z,96711.00
2022-11-09T13:39:32.215Z,96719.00
2022-11-09T13:44:52.633Z,96721.00
2022-11-09T13:50:36.276Z,96725.00
2022-11-09T13:55:56.194Z,96718.00
2022-11-09T14:07:32.209Z,96725.00
2022-11-09T14:13:49.421Z,96731.00
2022-11-09T14:19:45.997Z,96736.00
2022-11-09T14:32:01.951Z,96750.00
2022-11-09T14:37:21.925Z,96742.00
2022-11-09T14:43:12.066Z,96749.00
2022-11-09T14:48:33.084Z,96756.00
2022-11-09T14:54:04.673Z,96764.00
2022-11-09T14:59:33.573Z,96769.00
2022-11-09T15:05:50.491Z,96770.00
2022-11-09T15:11:09.979Z,96779.00
2022-11-09T15:16:31.128Z,96791.00
2022-11-09T15:22:53.136Z,96787.00
2022-11-09T15:28:44.647Z,96779.00
2022-11-09T15:34:29.705Z,96782.00
2022-11-09T15:39:49.835Z,96783.00
2022-11-09T15:45:26.621Z,96790.00
2022-11-09T15:50:46.393Z,96782.00
2022-11-09T15:56:09.090Z,96797.00
2022-11-09T16:01:43.992Z,96800.00
2022-11-09T16:07:05.574Z,96809.00
2022-11-09T16:12:57.378Z,96813.00
2022-11-09T16:18:22.891Z,96826.00
2022-11-09T16:24:09.996Z,96836.00
2022-11-09T16:29:29.648Z,96838.00
2022-11-09T16:35:25.500Z,96846.00
2022-11-09T16:40:49.255Z,96863.00
2022-11-09T16:46:11.863Z,96876.00
2022-11-09T16:51:37.656Z,96882.00
2022-11-09T16:56:57.370Z,96881.00
2022-11-09T17:02:29.663Z,96892.00
2022-11-09T17:07:48.770Z,96902.00
2022-11-09T17:13:29.075Z,96908.00
2022-11-09T17:18:50.728Z,96919.00
2022-11-09T17:24:33.007Z,96925.00
2022-11-09T17:29:52.546Z,96936.00
2022-11-09T17:35:17.691Z,96953.00
2022-11-09T17:40:37.149Z,96962.00
2022-11-09T17:46:05.281Z,96971.00
2022-11-09T17:51:27.420Z,96970.00
2022-11-09T17:56:47.018Z,96979.00
2022-11-09T18:02:18.287Z,96981.00
2022-11-09T18:07:37.628Z,96977.00
2022-11-09T18:13:03.858Z,96991.00
2022-11-09T18:18:24.618Z,96991.00
2022-11-09T18:23:45.753Z,97002.00
2022-11-09T18:29:05.253Z,96999.00
2022-11-09T18:34:25.075Z,97013.00
2022-11-09T18:39:47.783Z,97019.00
2022-11-09T18:45:08.916Z,97016.00
2022-11-09T18:50:28.825Z,97022.00
2022-11-09T18:55:49.452Z,97027.00
2022-11-09T19:01:16.874Z,97034.00
2022-11-09T19:06:36.813Z,97050.00
2022-11-09T19:12:09.016Z,97059.00
2022-11-09T19:17:28.051Z,97052.00
2022-11-09T19:22:51.417Z,97062.00
2022-11-09T19:28:10.530Z,97057.00
2022-11-09T19:33:36.573Z,97067.00
2022-11-09T19:38:56.137Z,97075.00
2022-11-09T19:44:23.288Z,97079.00
2022-11-09T19:49:42.697Z,97086.00
2022-11-09T19:55:06.117Z,97091.00
2022-11-09T20:00:25.401Z,97091.00
2022-11-09T20:05:59.459Z,97100.00
2022-11-09T20:11:42.062Z,97099.00
2022-11-09T20:17:03.581Z,97105.00
2022-11-09T20:22:36.604Z,97106.00
2022-11-09T20:27:57.045Z,97112.00
2022-11-09T20:33:19.684Z,97122.00
2022-11-09T20:38:39.816Z,97125.00
2022-11-09T20:44:09.995Z,97128.00
2022-11-09T20:49:29.369Z,97144.00
2022-11-09T20:54:48.839Z,97155.00
2022-11-09T21:00:14.393Z,97156.00
2022-11-09T21:05:34.029Z,97174.00
2022-11-09T21:11:12.957Z,97192.00
2022-11-09T21:16:32.190Z,97194.00
2022-11-09T21:22:07.153Z,97196.00
2022-11-09T21:27:47.986Z,97216.00
2022-11-09T21:33:08.058Z,97216.00
2022-11-09T21:38:27.343Z,97228.00
2022-11-09T21:44:08.537Z,97235.00
2022-11-09T21:49:28.098Z,97240.00
2022-11-09T21:54:54.088Z,97243.00
2022-11-09T22:00:15.123Z,97259.00
2022-11-09T22:05:38.302Z,97262.00
2022-11-09T22:11:11.313Z,97260.00
2022-11-09T22:16:32.825Z,97269.00
2022-11-09T22:21:58.658Z,97272.00
2022-11-09T22:27:18.206Z,97276.00
2022-11-09T22:32:45.309Z,97285.00
2022-11-09T22:38:05.091Z,97282.00
2022-11-09T22:43:27.148Z,97289.00
2022-11-09T22:48:46.922Z,97292.00
2022-11-09T22:54:12.011Z,97299.00
2022-11-09T22:59:31.243Z,97297.00
2022-11-09T23:04:57.719Z,97302.00
2022-11-09T23:10:17.335Z,97310.00
2022-11-09T23:15:41.077Z,97318.00
2022-11-09T23:21:00.964Z,97329.00
2022-11-09T23:26:41.659Z,97334.00
2022-11-09T23:32:01.245Z,97334.00
2022-11-09T23:37:20.637Z,97327.00
2022-11-09T23:42:40.616Z,97331.00
2022-11-09T23:48:06.473Z,97331.00
2022-11-09T23:53:27.543Z,97340.00
2022-11-09T23:58:56.954Z,97340.00
